sensor_id;sensor_type;location;lat;lon;timestamp;P1;durP1;ratioP1;P2;durP2;ratioP2
7051;SDS011;3567;52.444;13.556;2023-12-04T00:01:45;31.50;;;14.40;;
7051;SDS011;3567;52.444;13.556;2023-12-04T00:04:11;35.90;;;15.10;;
7051;SDS011;3567;52.444;13.556;2023-12-04T00:06:37;34.90;;;17.17;;
7051;SDS011;3567;52.444;13.556;2023-12-04T00:09:02;38.10;;;16.67;;
7051;SDS011;3567;52.444;13.556;2023-12-04T00:11:28;32.53;;;15.57;;
7051;SDS011;3567;52.444;13.556;2023-12-04T00:13:53;33.50;;;16.50;;
7051;SDS011;3567;52.444;13.556;2023-12-04T00:16:18;31.57;;;15.93;;
7051;SDS011;3567;52.444;13.556;2023-12-04T00:18:44;33.23;;;14.67;;
7051;SDS011;3567;52.444;13.556;2023-12-04T00:21:09;28.97;;;14.03;;
7051;SDS011;3567;52.444;13.556;2023-12-04T00:23:35;31.97;;;14.70;;
7051;SDS011;3567;52.444;13.556;2023-12-04T00:26:00;33.78;;;16.45;;
7051;SDS011;3567;52.444;13.556;2023-12-04T00:28:25;36.50;;;17.00;;
7051;SDS011;3567;52.444;13.556;2023-12-04T00:30:51;38.23;;;15.83;;
7051;SDS011;3567;52.444;13.556;2023-12-04T00:33:16;36.30;;;16.17;;
7051;SDS011;3567;52.444;13.556;2023-12-04T00:35:41;36.30;;;16.10;;
7051;SDS011;3567;52.444;13.556;2023-12-04T00:38:07;40.43;;;17.57;;
7051;SDS011;3567;52.444;13.556;2023-12-04T00:40:38;42.30;;;18.23;;
7051;SDS011;3567;52.444;13.556;2023-12-04T00:43:03;57.20;;;19.97;;
7051;SDS011;3567;52.444;13.556;2023-12-04T00:45:29;33.67;;;15.73;;
7051;SDS011;3567;52.444;13.556;2023-12-04T00:47:54;47.83;;;19.37;;
7051;SDS011;3567;52.444;13.556;2023-12-04T00:50:19;51.90;;;20.03;;
7051;SDS011;3567;52.444;13.556;2023-12-04T00:52:45;46.47;;;17.30;;
7051;SDS011;3567;52.444;13.556;2023-12-04T00:55:10;33.97;;;16.57;;
7051;SDS011;3567;52.444;13.556;2023-12-04T00:57:36;49.63;;;18.40;;
7051;SDS011;3567;52.444;13.556;2023-12-04T01:00:01;40.10;;;17.90;;
7051;SDS011;3567;52.444;13.556;2023-12-04T01:02:27;45.83;;;18.10;;
7051;SDS011;3567;52.444;13.556;2023-12-04T01:04:53;64.40;;;23.07;;
7051;SDS011;3567;52.444;13.556;2023-12-04T01:07:18;52.23;;;19.60;;
7051;SDS011;3567;52.444;13.556;2023-12-04T01:09:43;65.03;;;23.50;;
7051;SDS011;3567;52.444;13.556;2023-12-04T01:12:09;51.40;;;21.23;;
7051;SDS011;3567;52.444;13.556;2023-12-04T01:14:35;53.17;;;20.40;;
7051;SDS011;3567;52.444;13.556;2023-12-04T01:17:03;56.43;;;19.90;;
7051;SDS011;3567;52.444;13.556;2023-12-04T01:19:28;42.57;;;17.63;;
7051;SDS011;3567;52.444;13.556;2023-12-04T01:21:54;52.93;;;17.73;;
7051;SDS011;3567;52.444;13.556;2023-12-04T01:24:19;56.47;;;19.00;;
7051;SDS011;3567;52.444;13.556;2023-12-04T01:26:44;37.63;;;17.53;;
7051;SDS011;3567;52.444;13.556;2023-12-04T01:29:10;43.03;;;17.50;;
7051;SDS011;3567;52.444;13.556;2023-12-04T01:31:35;43.97;;;18.00;;
7051;SDS011;3567;52.444;13.556;2023-12-04T01:34:00;45.87;;;18.20;;
7051;SDS011;3567;52.444;13.556;2023-12-04T01:36:26;42.33;;;18.93;;
7051;SDS011;3567;52.444;13.556;2023-12-04T01:38:51;45.67;;;19.30;;
7051;SDS011;3567;52.444;13.556;2023-12-04T01:41:17;40.27;;;16.93;;
7051;SDS011;3567;52.444;13.556;2023-12-04T01:43:42;37.07;;;17.60;;
7051;SDS011;3567;52.444;13.556;2023-12-04T01:46:07;40.50;;;17.07;;
7051;SDS011;3567;52.444;13.556;2023-12-04T01:48:33;38.07;;;16.17;;
7051;SDS011;3567;52.444;13.556;2023-12-04T01:50:59;38.43;;;16.17;;
7051;SDS011;3567;52.444;13.556;2023-12-04T01:53:28;36.37;;;15.67;;
7051;SDS011;3567;52.444;13.556;2023-12-04T01:55:53;38.73;;;16.37;;
7051;SDS011;3567;52.444;13.556;2023-12-04T01:58:19;34.47;;;14.80;;
7051;SDS011;3567;52.444;13.556;2023-12-04T02:00:44;42.10;;;16.80;;
7051;SDS011;3567;52.444;13.556;2023-12-04T02:03:10;34.73;;;15.53;;
7051;SDS011;3567;52.444;13.556;2023-12-04T02:05:35;35.60;;;16.17;;
7051;SDS011;3567;52.444;13.556;2023-12-04T02:08:01;36.37;;;16.40;;
7051;SDS011;3567;52.444;13.556;2023-12-04T02:10:28;32.97;;;15.13;;
7051;SDS011;3567;52.444;13.556;2023-12-04T02:12:53;41.43;;;17.33;;
7051;SDS011;3567;52.444;13.556;2023-12-04T02:15:19;46.43;;;17.53;;
7051;SDS011;3567;52.444;13.556;2023-12-04T02:17:44;39.57;;;18.07;;
7051;SDS011;3567;52.444;13.556;2023-12-04T02:20:13;48.77;;;19.37;;
7051;SDS011;3567;52.444;13.556;2023-12-04T02:22:39;42.73;;;18.53;;
7051;SDS011;3567;52.444;13.556;2023-12-04T02:25:05;40.93;;;18.23;;
7051;SDS011;3567;52.444;13.556;2023-12-04T02:27:33;44.70;;;18.60;;
7051;SDS011;3567;52.444;13.556;2023-12-04T02:30:05;45.43;;;19.70;;
7051;SDS011;3567;52.444;13.556;2023-12-04T02:32:33;49.13;;;21.73;;
7051;SDS011;3567;52.444;13.556;2023-12-04T02:35:03;47.37;;;19.57;;
7051;SDS011;3567;52.444;13.556;2023-12-04T02:37:30;39.50;;;18.90;;
7051;SDS011;3567;52.444;13.556;2023-12-04T02:39:57;45.00;;;19.33;;
7051;SDS011;3567;52.444;13.556;2023-12-04T02:42:23;49.27;;;20.30;;
7051;SDS011;3567;52.444;13.556;2023-12-04T02:44:52;54.47;;;20.23;;
7051;SDS011;3567;52.444;13.556;2023-12-04T02:47:18;40.97;;;18.63;;
7051;SDS011;3567;52.444;13.556;2023-12-04T02:49:44;46.27;;;21.70;;
7051;SDS011;3567;52.444;13.556;2023-12-04T02:52:09;50.63;;;22.63;;
7051;SDS011;3567;52.444;13.556;2023-12-04T02:54:35;45.00;;;21.03;;
7051;SDS011;3567;52.444;13.556;2023-12-04T02:57:00;50.83;;;19.87;;
7051;SDS011;3567;52.444;13.556;2023-12-04T02:59:26;50.33;;;19.93;;
7051;SDS011;3567;52.444;13.556;2023-12-04T03:01:51;49.50;;;20.53;;
7051;SDS011;3567;52.444;13.556;2023-12-04T03:04:16;50.37;;;20.43;;
7051;SDS011;3567;52.444;13.556;2023-12-04T03:06:42;44.87;;;19.60;;
7051;SDS011;3567;52.444;13.556;2023-12-04T03:09:07;43.83;;;20.70;;
7051;SDS011;3567;52.444;13.556;2023-12-04T03:11:32;44.80;;;20.43;;
7051;SDS011;3567;52.444;13.556;2023-12-04T03:13:59;56.07;;;19.10;;
7051;SDS011;3567;52.444;13.556;2023-12-04T03:16:25;42.17;;;19.33;;
7051;SDS011;3567;52.444;13.556;2023-12-04T03:18:50;44.67;;;19.23;;
7051;SDS011;3567;52.444;13.556;2023-12-04T03:21:16;48.47;;;19.77;;
7051;SDS011;3567;52.444;13.556;2023-12-04T03:23:41;50.43;;;20.67;;
7051;SDS011;3567;52.444;13.556;2023-12-04T03:26:07;51.33;;;20.43;;
7051;SDS011;3567;52.444;13.556;2023-12-04T03:28:32;45.50;;;19.60;;
7051;SDS011;3567;52.444;13.556;2023-12-04T03:30:57;48.37;;;21.13;;
7051;SDS011;3567;52.444;13.556;2023-12-04T03:33:23;54.77;;;22.00;;
7051;SDS011;3567;52.444;13.556;2023-12-04T03:35:48;46.93;;;20.63;;
7051;SDS011;3567;52.444;13.556;2023-12-04T03:38:14;45.77;;;19.63;;
7051;SDS011;3567;52.444;13.556;2023-12-04T03:40:39;51.37;;;21.10;;
7051;SDS011;3567;52.444;13.556;2023-12-04T03:43:04;48.67;;;20.63;;
7051;SDS011;3567;52.444;13.556;2023-12-04T03:45:30;44.23;;;21.57;;
7051;SDS011;3567;52.444;13.556;2023-12-04T03:47:55;45.53;;;22.00;;
7051;SDS011;3567;52.444;13.556;2023-12-04T03:50:20;51.30;;;21.60;;
7051;SDS011;3567;52.444;13.556;2023-12-04T03:52:46;51.63;;;22.10;;
7051;SDS011;3567;52.444;13.556;2023-12-04T03:55:11;49.57;;;20.73;;
7051;SDS011;3567;52.444;13.556;2023-12-04T03:57:36;52.57;;;21.27;;
7051;SDS011;3567;52.444;13.556;2023-12-04T04:00:02;51.93;;;21.80;;
7051;SDS011;3567;52.444;13.556;2023-12-04T04:02:28;44.80;;;19.90;;
7051;SDS011;3567;52.444;13.556;2023-12-04T04:04:54;50.27;;;21.10;;
7051;SDS011;3567;52.444;13.556;2023-12-04T04:07:20;42.03;;;20.13;;
7051;SDS011;3567;52.444;13.556;2023-12-04T04:09:45;48.10;;;21.73;;
7051;SDS011;3567;52.444;13.556;2023-12-04T04:12:10;44.67;;;19.73;;
7051;SDS011;3567;52.444;13.556;2023-12-04T04:14:36;48.17;;;21.03;;
7051;SDS011;3567;52.444;13.556;2023-12-04T04:17:02;48.47;;;20.03;;
7051;SDS011;3567;52.444;13.556;2023-12-04T04:19:27;40.73;;;19.53;;
7051;SDS011;3567;52.444;13.556;2023-12-04T04:21:53;48.47;;;20.97;;
7051;SDS011;3567;52.444;13.556;2023-12-04T04:24:18;43.83;;;20.23;;
7051;SDS011;3567;52.444;13.556;2023-12-04T04:26:43;45.93;;;20.90;;
7051;SDS011;3567;52.444;13.556;2023-12-04T04:29:09;39.23;;;17.73;;
7051;SDS011;3567;52.444;13.556;2023-12-04T04:31:34;46.00;;;21.27;;
7051;SDS011;3567;52.444;13.556;2023-12-04T04:34:00;45.30;;;20.20;;
7051;SDS011;3567;52.444;13.556;2023-12-04T04:36:25;47.17;;;20.10;;
7051;SDS011;3567;52.444;13.556;2023-12-04T04:38:51;39.37;;;18.90;;
7051;SDS011;3567;52.444;13.556;2023-12-04T04:41:16;43.90;;;20.47;;
7051;SDS011;3567;52.444;13.556;2023-12-04T04:43:42;39.63;;;18.83;;
7051;SDS011;3567;52.444;13.556;2023-12-04T04:46:07;40.47;;;19.53;;
7051;SDS011;3567;52.444;13.556;2023-12-04T04:48:33;48.47;;;20.25;;
7051;SDS011;3567;52.444;13.556;2023-12-04T04:50:58;42.60;;;18.80;;
7051;SDS011;3567;52.444;13.556;2023-12-04T04:53:23;41.78;;;19.38;;
7051;SDS011;3567;52.444;13.556;2023-12-04T04:55:49;40.78;;;18.65;;
7051;SDS011;3567;52.444;13.556;2023-12-04T04:58:14;43.93;;;20.27;;
7051;SDS011;3567;52.444;13.556;2023-12-04T05:00:40;38.23;;;18.83;;
7051;SDS011;3567;52.444;13.556;2023-12-04T05:03:05;39.17;;;20.67;;
7051;SDS011;3567;52.444;13.556;2023-12-04T05:05:31;45.40;;;20.50;;
7051;SDS011;3567;52.444;13.556;2023-12-04T05:07:56;43.07;;;20.00;;
7051;SDS011;3567;52.444;13.556;2023-12-04T05:10:21;42.60;;;20.83;;
7051;SDS011;3567;52.444;13.556;2023-12-04T05:12:47;41.10;;;18.90;;
7051;SDS011;3567;52.444;13.556;2023-12-04T05:15:12;47.73;;;21.77;;
7051;SDS011;3567;52.444;13.556;2023-12-04T05:17:37;43.67;;;20.57;;
7051;SDS011;3567;52.444;13.556;2023-12-04T05:20:03;42.83;;;20.83;;
7051;SDS011;3567;52.444;13.556;2023-12-04T05:22:28;47.67;;;21.17;;
7051;SDS011;3567;52.444;13.556;2023-12-04T05:24:54;47.97;;;21.10;;
7051;SDS011;3567;52.444;13.556;2023-12-04T05:27:19;49.37;;;21.00;;
7051;SDS011;3567;52.444;13.556;2023-12-04T05:29:44;40.97;;;20.27;;
7051;SDS011;3567;52.444;13.556;2023-12-04T05:32:10;40.50;;;20.87;;
7051;SDS011;3567;52.444;13.556;2023-12-04T05:34:35;39.17;;;19.10;;
7051;SDS011;3567;52.444;13.556;2023-12-04T05:37:00;45.87;;;21.80;;
7051;SDS011;3567;52.444;13.556;2023-12-04T05:39:26;47.37;;;22.20;;
7051;SDS011;3567;52.444;13.556;2023-12-04T05:41:51;42.60;;;22.20;;
7051;SDS011;3567;52.444;13.556;2023-12-04T05:44:16;51.37;;;23.07;;
7051;SDS011;3567;52.444;13.556;2023-12-04T05:46:42;47.77;;;21.77;;
7051;SDS011;3567;52.444;13.556;2023-12-04T05:49:07;49.33;;;19.87;;
7051;SDS011;3567;52.444;13.556;2023-12-04T05:51:32;42.10;;;20.67;;
7051;SDS011;3567;52.444;13.556;2023-12-04T05:53:58;42.90;;;19.90;;
7051;SDS011;3567;52.444;13.556;2023-12-04T05:56:23;45.75;;;20.92;;
7051;SDS011;3567;52.444;13.556;2023-12-04T05:58:48;42.83;;;21.27;;
7051;SDS011;3567;52.444;13.556;2023-12-04T06:01:14;47.07;;;20.67;;
7051;SDS011;3567;52.444;13.556;2023-12-04T06:03:40;48.47;;;22.80;;
7051;SDS011;3567;52.444;13.556;2023-12-04T06:06:05;55.63;;;25.87;;
7051;SDS011;3567;52.444;13.556;2023-12-04T06:08:31;57.60;;;24.80;;
7051;SDS011;3567;52.444;13.556;2023-12-04T06:10:56;69.83;;;28.53;;
7051;SDS011;3567;52.444;13.556;2023-12-04T06:13:22;39.10;;;19.00;;
7051;SDS011;3567;52.444;13.556;2023-12-04T06:15:48;44.27;;;20.03;;
7051;SDS011;3567;52.444;13.556;2023-12-04T06:18:13;44.53;;;20.33;;
7051;SDS011;3567;52.444;13.556;2023-12-04T06:20:38;44.97;;;21.03;;
7051;SDS011;3567;52.444;13.556;2023-12-04T06:23:04;44.97;;;20.55;;
7051;SDS011;3567;52.444;13.556;2023-12-04T06:25:30;48.45;;;20.55;;
7051;SDS011;3567;52.444;13.556;2023-12-04T06:27:55;46.43;;;22.43;;
7051;SDS011;3567;52.444;13.556;2023-12-04T06:30:21;47.03;;;21.60;;
7051;SDS011;3567;52.444;13.556;2023-12-04T06:32:46;41.60;;;20.83;;
7051;SDS011;3567;52.444;13.556;2023-12-04T06:35:12;46.53;;;21.93;;
7051;SDS011;3567;52.444;13.556;2023-12-04T06:37:38;52.30;;;24.13;;
7051;SDS011;3567;52.444;13.556;2023-12-04T06:40:07;45.42;;;20.52;;
7051;SDS011;3567;52.444;13.556;2023-12-04T06:42:34;41.28;;;20.13;;
7051;SDS011;3567;52.444;13.556;2023-12-04T06:45:00;45.45;;;20.38;;
7051;SDS011;3567;52.444;13.556;2023-12-04T06:47:26;44.17;;;22.20;;
7051;SDS011;3567;52.444;13.556;2023-12-04T06:49:55;38.45;;;18.85;;
7051;SDS011;3567;52.444;13.556;2023-12-04T06:52:21;40.97;;;20.80;;
7051;SDS011;3567;52.444;13.556;2023-12-04T06:54:46;43.73;;;21.63;;
7051;SDS011;3567;52.444;13.556;2023-12-04T06:57:11;39.72;;;20.05;;
7051;SDS011;3567;52.444;13.556;2023-12-04T06:59:39;43.10;;;21.38;;
7051;SDS011;3567;52.444;13.556;2023-12-04T07:02:06;42.80;;;21.33;;
7051;SDS011;3567;52.444;13.556;2023-12-04T07:04:31;48.13;;;22.20;;
7051;SDS011;3567;52.444;13.556;2023-12-04T07:06:57;41.72;;;20.75;;
7051;SDS011;3567;52.444;13.556;2023-12-04T07:09:23;37.35;;;19.27;;
7051;SDS011;3567;52.444;13.556;2023-12-04T07:11:48;38.33;;;19.98;;
7051;SDS011;3567;52.444;13.556;2023-12-04T07:14:13;40.38;;;19.20;;
7051;SDS011;3567;52.444;13.556;2023-12-04T07:16:42;37.83;;;19.60;;
7051;SDS011;3567;52.444;13.556;2023-12-04T07:19:08;42.20;;;19.75;;
7051;SDS011;3567;52.444;13.556;2023-12-04T07:21:34;41.53;;;21.65;;
7051;SDS011;3567;52.444;13.556;2023-12-04T07:24:00;43.55;;;19.98;;
7051;SDS011;3567;52.444;13.556;2023-12-04T07:26:26;41.67;;;20.20;;
7051;SDS011;3567;52.444;13.556;2023-12-04T07:28:51;43.95;;;21.73;;
7051;SDS011;3567;52.444;13.556;2023-12-04T07:31:16;42.95;;;19.58;;
7051;SDS011;3567;52.444;13.556;2023-12-04T07:33:42;39.55;;;19.85;;
7051;SDS011;3567;52.444;13.556;2023-12-04T07:36:08;39.33;;;19.70;;
7051;SDS011;3567;52.444;13.556;2023-12-04T07:38:33;36.78;;;20.70;;
7051;SDS011;3567;52.444;13.556;2023-12-04T07:40:59;38.45;;;19.58;;
7051;SDS011;3567;52.444;13.556;2023-12-04T07:43:24;41.00;;;20.17;;
7051;SDS011;3567;52.444;13.556;2023-12-04T07:45:50;65.40;;;28.05;;
7051;SDS011;3567;52.444;13.556;2023-12-04T07:48:15;36.72;;;18.88;;
7051;SDS011;3567;52.444;13.556;2023-12-04T07:50:41;36.83;;;20.02;;
7051;SDS011;3567;52.444;13.556;2023-12-04T07:53:07;37.42;;;19.40;;
7051;SDS011;3567;52.444;13.556;2023-12-04T07:55:37;36.75;;;19.10;;
7051;SDS011;3567;52.444;13.556;2023-12-04T07:58:02;39.50;;;19.30;;
7051;SDS011;3567;52.444;13.556;2023-12-04T08:00:27;36.28;;;18.08;;
7051;SDS011;3567;52.444;13.556;2023-12-04T08:02:53;32.58;;;17.70;;
7051;SDS011;3567;52.444;13.556;2023-12-04T08:05:18;37.10;;;18.13;;
7051;SDS011;3567;52.444;13.556;2023-12-04T08:07:43;37.75;;;18.70;;
7051;SDS011;3567;52.444;13.556;2023-12-04T08:10:09;37.03;;;17.90;;
7051;SDS011;3567;52.444;13.556;2023-12-04T08:12:35;35.58;;;19.00;;
7051;SDS011;3567;52.444;13.556;2023-12-04T08:15:00;32.25;;;18.45;;
7051;SDS011;3567;52.444;13.556;2023-12-04T08:17:26;35.97;;;18.25;;
7051;SDS011;3567;52.444;13.556;2023-12-04T08:19:52;31.98;;;16.58;;
7051;SDS011;3567;52.444;13.556;2023-12-04T08:22:17;38.25;;;19.13;;
7051;SDS011;3567;52.444;13.556;2023-12-04T08:24:42;31.77;;;17.55;;
7051;SDS011;3567;52.444;13.556;2023-12-04T08:27:08;31.45;;;17.17;;
7051;SDS011;3567;52.444;13.556;2023-12-04T08:29:33;34.78;;;18.13;;
7051;SDS011;3567;52.444;13.556;2023-12-04T08:31:59;37.45;;;16.77;;
7051;SDS011;3567;52.444;13.556;2023-12-04T08:34:25;29.98;;;16.88;;
7051;SDS011;3567;52.444;13.556;2023-12-04T08:36:50;31.90;;;16.08;;
7051;SDS011;3567;52.444;13.556;2023-12-04T08:39:16;32.88;;;17.23;;
7051;SDS011;3567;52.444;13.556;2023-12-04T08:41:44;31.85;;;17.98;;
7051;SDS011;3567;52.444;13.556;2023-12-04T08:44:10;31.63;;;17.08;;
7051;SDS011;3567;52.444;13.556;2023-12-04T08:46:36;32.92;;;17.88;;
7051;SDS011;3567;52.444;13.556;2023-12-04T08:49:01;36.55;;;19.45;;
7051;SDS011;3567;52.444;13.556;2023-12-04T08:51:27;33.80;;;17.67;;
7051;SDS011;3567;52.444;13.556;2023-12-04T08:53:52;31.02;;;16.77;;
7051;SDS011;3567;52.444;13.556;2023-12-04T08:56:17;28.92;;;16.25;;
7051;SDS011;3567;52.444;13.556;2023-12-04T08:58:43;29.58;;;15.55;;
7051;SDS011;3567;52.444;13.556;2023-12-04T09:01:09;28.67;;;15.60;;
7051;SDS011;3567;52.444;13.556;2023-12-04T09:03:35;28.20;;;16.58;;
7051;SDS011;3567;52.444;13.556;2023-12-04T09:06:01;26.52;;;15.80;;
7051;SDS011;3567;52.444;13.556;2023-12-04T09:08:26;27.45;;;14.88;;
7051;SDS011;3567;52.444;13.556;2023-12-04T09:10:52;27.52;;;15.90;;
7051;SDS011;3567;52.444;13.556;2023-12-04T09:13:17;26.40;;;15.32;;
7051;SDS011;3567;52.444;13.556;2023-12-04T09:15:44;30.27;;;16.00;;
7051;SDS011;3567;52.444;13.556;2023-12-04T09:18:09;24.73;;;14.63;;
7051;SDS011;3567;52.444;13.556;2023-12-04T09:20:35;23.38;;;14.32;;
7051;SDS011;3567;52.444;13.556;2023-12-04T09:23:01;28.08;;;15.70;;
7051;SDS011;3567;52.444;13.556;2023-12-04T09:25:26;28.27;;;15.77;;
7051;SDS011;3567;52.444;13.556;2023-12-04T09:27:51;21.88;;;13.77;;
7051;SDS011;3567;52.444;13.556;2023-12-04T09:30:17;23.27;;;13.65;;
7051;SDS011;3567;52.444;13.556;2023-12-04T09:32:43;25.42;;;14.45;;
7051;SDS011;3567;52.444;13.556;2023-12-04T09:35:08;22.58;;;13.02;;
7051;SDS011;3567;52.444;13.556;2023-12-04T09:37:34;23.60;;;13.50;;
7051;SDS011;3567;52.444;13.556;2023-12-04T09:39:59;24.48;;;13.23;;
7051;SDS011;3567;52.444;13.556;2023-12-04T09:42:25;26.80;;;13.88;;
7051;SDS011;3567;52.444;13.556;2023-12-04T09:44:51;23.35;;;13.23;;
7051;SDS011;3567;52.444;13.556;2023-12-04T09:47:17;21.67;;;12.85;;
7051;SDS011;3567;52.444;13.556;2023-12-04T09:49:44;20.60;;;12.52;;
7051;SDS011;3567;52.444;13.556;2023-12-04T09:52:10;22.48;;;13.15;;
7051;SDS011;3567;52.444;13.556;2023-12-04T09:54:36;22.27;;;12.75;;
7051;SDS011;3567;52.444;13.556;2023-12-04T09:57:03;21.40;;;13.55;;
7051;SDS011;3567;52.444;13.556;2023-12-04T09:59:29;19.08;;;12.25;;
7051;SDS011;3567;52.444;13.556;2023-12-04T10:01:55;21.75;;;13.55;;
7051;SDS011;3567;52.444;13.556;2023-12-04T10:04:22;22.83;;;13.77;;
7051;SDS011;3567;52.444;13.556;2023-12-04T10:06:49;19.52;;;11.38;;
7051;SDS011;3567;52.444;13.556;2023-12-04T10:09:17;21.55;;;13.30;;
7051;SDS011;3567;52.444;13.556;2023-12-04T10:11:44;21.45;;;12.98;;
7051;SDS011;3567;52.444;13.556;2023-12-04T10:14:14;20.63;;;13.25;;
7051;SDS011;3567;52.444;13.556;2023-12-04T10:16:42;19.85;;;12.57;;
7051;SDS011;3567;52.444;13.556;2023-12-04T10:19:41;20.45;;;11.98;;
7051;SDS011;3567;52.444;13.556;2023-12-04T10:21:59;21.50;;;12.80;;
7051;SDS011;3567;52.444;13.556;2023-12-04T10:24:28;20.45;;;12.40;;
7051;SDS011;3567;52.444;13.556;2023-12-04T10:26:55;20.98;;;12.63;;
7051;SDS011;3567;52.444;13.556;2023-12-04T10:29:21;22.50;;;12.88;;
7051;SDS011;3567;52.444;13.556;2023-12-04T10:31:47;17.85;;;11.00;;
7051;SDS011;3567;52.444;13.556;2023-12-04T10:34:15;20.95;;;13.27;;
7051;SDS011;3567;52.444;13.556;2023-12-04T10:36:41;21.48;;;12.43;;
7051;SDS011;3567;52.444;13.556;2023-12-04T10:39:06;19.77;;;11.07;;
7051;SDS011;3567;52.444;13.556;2023-12-04T10:41:31;17.73;;;11.57;;
7051;SDS011;3567;52.444;13.556;2023-12-04T10:43:57;19.05;;;11.82;;
7051;SDS011;3567;52.444;13.556;2023-12-04T10:46:26;19.98;;;12.02;;
7051;SDS011;3567;52.444;13.556;2023-12-04T10:48:53;19.85;;;11.50;;
7051;SDS011;3567;52.444;13.556;2023-12-04T10:51:18;19.40;;;11.52;;
7051;SDS011;3567;52.444;13.556;2023-12-04T10:53:47;22.70;;;12.38;;
7051;SDS011;3567;52.444;13.556;2023-12-04T10:56:19;18.10;;;11.27;;
7051;SDS011;3567;52.444;13.556;2023-12-04T10:58:56;16.90;;;11.07;;
7051;SDS011;3567;52.444;13.556;2023-12-04T11:01:25;20.23;;;11.02;;
7051;SDS011;3567;52.444;13.556;2023-12-04T11:03:55;15.65;;;10.68;;
7051;SDS011;3567;52.444;13.556;2023-12-04T11:06:23;20.33;;;11.02;;
7051;SDS011;3567;52.444;13.556;2023-12-04T11:08:50;15.15;;;9.88;;
7051;SDS011;3567;52.444;13.556;2023-12-04T11:11:26;16.20;;;11.00;;
7051;SDS011;3567;52.444;13.556;2023-12-04T11:13:56;19.60;;;11.45;;
7051;SDS011;3567;52.444;13.556;2023-12-04T11:16:42;16.48;;;10.48;;
7051;SDS011;3567;52.444;13.556;2023-12-04T11:19:20;14.65;;;10.38;;
7051;SDS011;3567;52.444;13.556;2023-12-04T11:21:47;15.70;;;10.57;;
7051;SDS011;3567;52.444;13.556;2023-12-04T11:24:14;16.52;;;10.15;;
7051;SDS011;3567;52.444;13.556;2023-12-04T11:26:41;15.93;;;10.05;;
7051;SDS011;3567;52.444;13.556;2023-12-04T11:29:07;15.60;;;9.93;;
7051;SDS011;3567;52.444;13.556;2023-12-04T11:31:35;16.38;;;10.80;;
7051;SDS011;3567;52.444;13.556;2023-12-04T11:34:01;14.27;;;9.45;;
7051;SDS011;3567;52.444;13.556;2023-12-04T11:36:28;14.98;;;8.65;;
7051;SDS011;3567;52.444;13.556;2023-12-04T11:38:53;16.65;;;10.27;;
7051;SDS011;3567;52.444;13.556;2023-12-04T11:41:19;17.05;;;10.43;;
7051;SDS011;3567;52.444;13.556;2023-12-04T11:43:46;15.68;;;8.75;;
7051;SDS011;3567;52.444;13.556;2023-12-04T11:46:13;15.43;;;9.77;;
7051;SDS011;3567;52.444;13.556;2023-12-04T11:48:45;13.65;;;9.07;;
7051;SDS011;3567;52.444;13.556;2023-12-04T11:51:12;13.63;;;9.77;;
7051;SDS011;3567;52.444;13.556;2023-12-04T11:54:00;12.80;;;9.52;;
7051;SDS011;3567;52.444;13.556;2023-12-04T11:56:25;15.85;;;9.70;;
7051;SDS011;3567;52.444;13.556;2023-12-04T11:58:50;15.18;;;10.07;;
7051;SDS011;3567;52.444;13.556;2023-12-04T12:01:19;18.75;;;10.35;;
7051;SDS011;3567;52.444;13.556;2023-12-04T12:03:49;15.50;;;10.20;;
7051;SDS011;3567;52.444;13.556;2023-12-04T12:06:15;16.15;;;9.93;;
7051;SDS011;3567;52.444;13.556;2023-12-04T12:08:41;15.93;;;10.73;;
7051;SDS011;3567;52.444;13.556;2023-12-04T12:11:06;15.43;;;9.57;;
7051;SDS011;3567;52.444;13.556;2023-12-04T12:13:32;15.48;;;9.82;;
7051;SDS011;3567;52.444;13.556;2023-12-04T12:15:58;15.40;;;9.45;;
7051;SDS011;3567;52.444;13.556;2023-12-04T12:18:24;17.10;;;10.52;;
7051;SDS011;3567;52.444;13.556;2023-12-04T12:20:49;14.45;;;9.13;;
7051;SDS011;3567;52.444;13.556;2023-12-04T12:23:15;16.35;;;9.93;;
7051;SDS011;3567;52.444;13.556;2023-12-04T12:25:40;15.40;;;9.88;;
7051;SDS011;3567;52.444;13.556;2023-12-04T12:32:20;153.70;;;90.03;;
7051;SDS011;3567;52.444;13.556;2023-12-04T12:34:45;18.30;;;10.68;;
7051;SDS011;3567;52.444;13.556;2023-12-04T12:37:11;15.30;;;10.48;;
7051;SDS011;3567;52.444;13.556;2023-12-04T12:39:36;14.18;;;9.25;;
7051;SDS011;3567;52.444;13.556;2023-12-04T12:42:02;15.88;;;10.38;;
7051;SDS011;3567;52.444;13.556;2023-12-04T12:44:36;14.27;;;10.18;;
7051;SDS011;3567;52.444;13.556;2023-12-04T12:47:08;17.38;;;10.13;;
7051;SDS011;3567;52.444;13.556;2023-12-04T12:49:34;15.10;;;9.30;;
7051;SDS011;3567;52.444;13.556;2023-12-04T12:52:01;14.82;;;9.98;;
7051;SDS011;3567;52.444;13.556;2023-12-04T12:54:26;15.13;;;10.07;;
7051;SDS011;3567;52.444;13.556;2023-12-04T12:56:52;17.02;;;11.15;;
7051;SDS011;3567;52.444;13.556;2023-12-04T12:59:17;16.02;;;10.05;;
7051;SDS011;3567;52.444;13.556;2023-12-04T13:01:43;19.40;;;10.85;;
7051;SDS011;3567;52.444;13.556;2023-12-04T13:04:08;15.77;;;10.73;;
7051;SDS011;3567;52.444;13.556;2023-12-04T13:06:40;15.45;;;10.55;;
7051;SDS011;3567;52.444;13.556;2023-12-04T13:09:05;16.40;;;9.93;;
7051;SDS011;3567;52.444;13.556;2023-12-04T13:11:31;14.55;;;9.73;;
7051;SDS011;3567;52.444;13.556;2023-12-04T13:13:57;17.23;;;10.55;;
7051;SDS011;3567;52.444;13.556;2023-12-04T13:16:23;17.98;;;9.82;;
7051;SDS011;3567;52.444;13.556;2023-12-04T13:18:48;15.52;;;10.85;;
7051;SDS011;3567;52.444;13.556;2023-12-04T13:21:13;15.23;;;10.60;;
7051;SDS011;3567;52.444;13.556;2023-12-04T13:23:39;19.17;;;11.95;;
7051;SDS011;3567;52.444;13.556;2023-12-04T13:26:04;18.05;;;10.43;;
7051;SDS011;3567;52.444;13.556;2023-12-04T13:28:30;16.42;;;10.18;;
7051;SDS011;3567;52.444;13.556;2023-12-04T13:30:55;16.70;;;10.55;;
7051;SDS011;3567;52.444;13.556;2023-12-04T13:33:21;53.38;;;24.38;;
7051;SDS011;3567;52.444;13.556;2023-12-04T13:35:46;20.10;;;11.18;;
7051;SDS011;3567;52.444;13.556;2023-12-04T13:38:12;16.48;;;10.25;;
7051;SDS011;3567;52.444;13.556;2023-12-04T13:40:41;15.38;;;10.73;;
7051;SDS011;3567;52.444;13.556;2023-12-04T13:43:06;17.33;;;11.60;;
7051;SDS011;3567;52.444;13.556;2023-12-04T13:45:51;18.20;;;11.43;;
7051;SDS011;3567;52.444;13.556;2023-12-04T13:48:17;20.02;;;11.35;;
7051;SDS011;3567;52.444;13.556;2023-12-04T13:50:46;17.10;;;11.05;;
7051;SDS011;3567;52.444;13.556;2023-12-04T13:53:11;15.93;;;10.52;;
7051;SDS011;3567;52.444;13.556;2023-12-04T13:55:39;17.65;;;11.25;;
7051;SDS011;3567;52.444;13.556;2023-12-04T13:58:19;18.55;;;11.15;;
7051;SDS011;3567;52.444;13.556;2023-12-04T14:01:05;18.63;;;11.55;;
7051;SDS011;3567;52.444;13.556;2023-12-04T14:03:43;17.48;;;10.88;;
7051;SDS011;3567;52.444;13.556;2023-12-04T14:06:10;17.98;;;11.63;;
7051;SDS011;3567;52.444;13.556;2023-12-04T14:08:36;18.20;;;11.63;;
7051;SDS011;3567;52.444;13.556;2023-12-04T14:11:02;18.65;;;10.85;;
7051;SDS011;3567;52.444;13.556;2023-12-04T14:13:28;18.85;;;11.70;;
7051;SDS011;3567;52.444;13.556;2023-12-04T14:15:54;20.05;;;13.02;;
7051;SDS011;3567;52.444;13.556;2023-12-04T14:18:19;17.60;;;11.13;;
7051;SDS011;3567;52.444;13.556;2023-12-04T14:20:45;17.27;;;10.85;;
7051;SDS011;3567;52.444;13.556;2023-12-04T14:23:10;18.25;;;11.90;;
7051;SDS011;3567;52.444;13.556;2023-12-04T14:25:35;16.25;;;11.20;;
7051;SDS011;3567;52.444;13.556;2023-12-04T14:28:01;18.30;;;11.55;;
7051;SDS011;3567;52.444;13.556;2023-12-04T14:30:27;18.55;;;11.18;;
7051;SDS011;3567;52.444;13.556;2023-12-04T14:32:53;19.25;;;11.48;;
7051;SDS011;3567;52.444;13.556;2023-12-04T14:35:18;18.75;;;11.18;;